Central, Connecticut
Current Conditions -  °F | °C
As of 10:53 PM on Friday 19 Dec 2014 (Local Time) from KHFD Reporting Station
Clear Clear  
Wind Chill: 21°   Ceiling: Unl
Heat Index: 29°   Visibility: 10mi
Dew Point: 20°   Wind: 8mph
Humidity: 69%   Direction: 320°NW
Pressure: 30.16"   Gusts: NA
Location:  41.7665°N, 72.6731°W
Report Text: KHFD 200353Z 32007KT 10SM CLR M02/M07 A3016 RMK AO2 SLP213 T10171067
Loading
Personal Weather Stations






























Interactive Weather Map New forecast layout! Learn more

10-Day Weather Forecast

Advertisements
Track Severe Weather on mobile